createdAt,value
2018-06-29T00:00:14.793Z,0.00
2018-06-29T00:01:07.840Z,0.00
2018-06-29T00:02:10.918Z,0.00
2018-06-29T00:03:28.027Z,0.00
2018-06-29T00:05:15.133Z,0.00
2018-06-29T00:07:53.856Z,0.00
2018-06-29T00:08:53.964Z,0.00
2018-06-29T00:09:50.489Z,0.00
2018-06-29T00:10:50.087Z,0.00
2018-06-29T00:12:06.171Z,0.00
2018-06-29T00:13:09.249Z,0.00
2018-06-29T00:14:13.971Z,0.00
2018-06-29T00:15:20.730Z,0.00
2018-06-29T00:17:26.277Z,0.00
2018-06-29T00:18:34.783Z,0.00
2018-06-29T00:19:41.451Z,0.00
2018-06-29T00:20:52.305Z,0.00
2018-06-29T00:21:49.855Z,0.00
2018-06-29T00:25:15.988Z,0.00
2018-06-29T00:26:06.982Z,0.00
2018-06-29T00:27:18.664Z,0.00
2018-06-29T00:29:33.216Z,0.00
2018-06-29T00:30:35.271Z,0.00
2018-06-29T00:31:31.182Z,0.00
2018-06-29T00:32:51.875Z,0.00
2018-06-29T00:34:00.893Z,0.00
2018-06-29T00:34:57.111Z,0.00
2018-06-29T00:36:02.726Z,0.00
2018-06-29T00:37:11.357Z,0.00
2018-06-29T00:38:22.219Z,0.00
2018-06-29T00:39:20.176Z,0.00
2018-06-29T00:41:20.192Z,0.00
2018-06-29T00:42:40.984Z,0.00
2018-06-29T00:43:48.160Z,0.00
2018-06-29T00:44:47.230Z,0.00
2018-06-29T00:45:57.226Z,0.00
2018-06-29T00:47:58.426Z,0.00
2018-06-29T00:49:13.897Z,0.00
2018-06-29T00:50:11.752Z,0.00
2018-06-29T00:51:19.438Z,0.00
2018-06-29T00:52:17.704Z,0.00
2018-06-29T00:53:26.723Z,0.00
2018-06-29T00:54:44.957Z,0.00
2018-06-29T00:55:36.979Z,0.00
2018-06-29T00:56:40.669Z,0.00
2018-06-29T00:57:57.650Z,0.00
2018-06-29T00:58:56.457Z,0.00
2018-06-29T01:00:05.573Z,0.00
2018-06-29T01:01:07.017Z,0.00
2018-06-29T01:02:04.564Z,0.00
2018-06-29T01:03:17.267Z,0.00
2018-06-29T01:05:28.954Z,0.00
2018-06-29T01:06:38.382Z,0.00
2018-06-29T01:07:40.130Z,0.00
2018-06-29T01:08:49.352Z,0.00
2018-06-29T01:09:54.585Z,0.00
2018-06-29T01:10:59.196Z,0.00
2018-06-29T01:12:07.610Z,0.00
2018-06-29T01:13:06.731Z,0.00
2018-06-29T01:14:06.283Z,0.00
2018-06-29T01:15:20.422Z,0.00
2018-06-29T01:16:21.455Z,0.00
2018-06-29T01:19:44.615Z,0.00
2018-06-29T01:21:54.664Z,0.00
2018-06-29T01:23:05.013Z,0.00
2018-06-29T01:23:58.580Z,0.00
2018-06-29T01:25:13.423Z,0.00
2018-06-29T01:26:11.893Z,0.00
2018-06-29T01:27:14.459Z,0.00
2018-06-29T01:30:33.936Z,0.00
2018-06-29T01:31:39.576Z,0.00
2018-06-29T01:32:53.407Z,0.00
2018-06-29T01:34:05.395Z,0.00
2018-06-29T01:35:09.604Z,0.00
2018-06-29T01:36:12.681Z,0.00
2018-06-29T01:37:26.407Z,0.00
2018-06-29T01:39:24.986Z,0.00
2018-06-29T01:40:24.071Z,0.00
2018-06-29T01:41:32.783Z,0.00
2018-06-29T01:42:44.466Z,0.00
2018-06-29T01:43:37.100Z,0.00
2018-06-29T01:46:00.668Z,0.00
2018-06-29T01:46:52.887Z,0.00
2018-06-29T01:48:10.919Z,0.00
2018-06-29T01:49:07.954Z,0.00
2018-06-29T01:50:24.241Z,0.00
2018-06-29T01:51:44.773Z,0.00
2018-06-29T01:52:41.490Z,0.00
2018-06-29T01:53:46.380Z,0.00
2018-06-29T01:54:40.448Z,0.00
2018-06-29T01:55:39.228Z,0.00
2018-06-29T01:56:45.198Z,0.00
2018-06-29T01:57:48.661Z,0.00
2018-06-29T01:59:19.183Z,0.00
2018-06-29T02:00:09.461Z,0.00
2018-06-29T02:01:25.239Z,0.00
2018-06-29T02:02:31.290Z,0.00
2018-06-29T02:03:34.570Z,0.00
2018-06-29T02:04:36.727Z,0.00
2018-06-29T02:05:53.223Z,0.00
2018-06-29T02:06:45.343Z,0.00
2018-06-29T02:09:22.429Z,0.00
2018-06-29T02:10:23.559Z,0.00
2018-06-29T02:11:00.321Z,0.00
2018-06-29T02:12:14.252Z,0.00
2018-06-29T02:13:18.870Z,0.00
2018-06-29T02:14:09.969Z,0.00
2018-06-29T02:15:40.694Z,0.00
2018-06-29T02:16:50.026Z,0.00
2018-06-29T02:17:50.640Z,0.00
2018-06-29T02:18:36.310Z,0.00
2018-06-29T02:19:59.459Z,0.00
2018-06-29T02:21:08.581Z,0.00
2018-06-29T02:21:58.970Z,0.00
2018-06-29T02:23:11.461Z,0.00
2018-06-29T02:24:08.305Z,0.00
2018-06-29T02:25:09.119Z,0.00
2018-06-29T02:26:17.522Z,0.00
2018-06-29T02:27:21.830Z,0.00
2018-06-29T02:28:33.925Z,0.00
2018-06-29T02:29:56.066Z,0.00
2018-06-29T02:30:46.755Z,0.00
2018-06-29T02:32:00.770Z,0.00
2018-06-29T02:32:51.152Z,20.00
2018-06-29T02:34:00.179Z,0.00
2018-06-29T02:35:12.362Z,0.00
2018-06-29T02:36:05.080Z,0.00
2018-06-29T02:37:31.525Z,0.00
2018-06-29T02:39:42.187Z,0.00
2018-06-29T02:40:38.404Z,0.00
2018-06-29T02:41:43.738Z,0.00
2018-06-29T02:42:48.252Z,0.00
2018-06-29T02:43:41.383Z,0.00
2018-06-29T02:45:05.189Z,0.00
2018-06-29T02:46:28.107Z,0.00
2018-06-29T02:48:21.383Z,0.00
2018-06-29T02:49:20.381Z,0.00
2018-06-29T02:50:24.383Z,4.00
2018-06-29T02:51:24.247Z,4.00
2018-06-29T02:53:41.975Z,0.00
2018-06-29T02:54:48.295Z,4.00
2018-06-29T02:55:52.741Z,4.00
2018-06-29T02:57:02.068Z,4.00
2018-06-29T02:57:57.567Z,0.00
2018-06-29T02:59:01.773Z,4.00
2018-06-29T03:00:19.600Z,4.00
2018-06-29T03:02:20.328Z,8.00
2018-06-29T03:04:27.387Z,8.00
2018-06-29T03:05:46.161Z,4.00
2018-06-29T03:06:48.618Z,8.00
2018-06-29T03:07:55.387Z,8.00
2018-06-29T03:10:08.708Z,12.00
2018-06-29T03:11:15.578Z,12.00
2018-06-29T03:13:14.258Z,12.00
2018-06-29T03:14:30.035Z,16.00
2018-06-29T03:15:29.938Z,16.00
2018-06-29T03:16:32.096Z,16.00
2018-06-29T03:17:45.211Z,20.00
2018-06-29T03:18:48.187Z,20.00
2018-06-29T03:20:08.571Z,24.00
2018-06-29T03:20:49.391Z,24.00
2018-06-29T03:22:09.390Z,28.00
2018-06-29T03:23:09.643Z,28.00
2018-06-29T03:24:14.402Z,28.00
2018-06-29T03:26:34.111Z,32.00
2018-06-29T03:27:28.792Z,32.00
2018-06-29T03:28:26.751Z,36.00
2018-06-29T03:29:42.311Z,40.00
2018-06-29T03:30:45.506Z,44.00
2018-06-29T03:31:55.237Z,48.00
2018-06-29T03:32:49.719Z,48.00
2018-06-29T03:34:00.318Z,48.00
2018-06-29T03:35:14.215Z,52.00
2018-06-29T03:38:19.752Z,60.00
2018-06-29T03:39:29.286Z,60.00
2018-06-29T03:40:30.793Z,64.00
2018-06-29T03:41:41.584Z,64.00
2018-06-29T03:42:45.174Z,68.00
2018-06-29T03:43:56.858Z,68.00
2018-06-29T03:45:02.290Z,72.00
2018-06-29T03:45:59.019Z,76.00
2018-06-29T03:47:11.929Z,76.00
2018-06-29T03:48:11.219Z,76.00
2018-06-29T03:51:27.115Z,88.00
2018-06-29T03:55:42.909Z,104.00
2018-06-29T03:56:55.920Z,108.00
2018-06-29T03:59:14.470Z,112.00
2018-06-29T04:00:13.348Z,116.00
2018-06-29T04:01:20.011Z,120.00
2018-06-29T04:03:31.090Z,124.00
2018-06-29T04:05:40.927Z,124.00
2018-06-29T04:06:46.466Z,128.00
2018-06-29T04:07:49.236Z,128.00
2018-06-29T04:08:56.206Z,132.00
2018-06-29T04:10:05.327Z,132.00
2018-06-29T04:11:08.101Z,132.00
2018-06-29T04:13:25.110Z,136.00
2018-06-29T04:15:34.852Z,140.00
2018-06-29T04:16:33.220Z,144.00
2018-06-29T04:18:54.533Z,148.00
2018-06-29T04:19:58.737Z,152.00
2018-06-29T04:21:10.418Z,152.00
2018-06-29T04:22:03.257Z,152.00
2018-06-29T04:24:08.176Z,160.00
2018-06-29T04:25:30.208Z,164.00
2018-06-29T04:26:29.405Z,132.00
2018-06-29T04:28:53.372Z,172.00
2018-06-29T04:29:44.675Z,172.00
2018-06-29T04:30:56.767Z,176.00
2018-06-29T04:32:02.915Z,176.00
2018-06-29T04:34:09.398Z,184.00
2018-06-29T04:36:15.895Z,184.00
2018-06-29T04:37:33.417Z,184.00
2018-06-29T04:38:31.837Z,188.00
2018-06-29T04:39:28.772Z,192.00
2018-06-29T04:40:51.413Z,188.00
2018-06-29T04:41:55.420Z,188.00
2018-06-29T04:45:25.941Z,192.00
2018-06-29T04:46:27.484Z,192.00
2018-06-29T04:47:20.734Z,196.00
2018-06-29T04:48:39.375Z,196.00
2018-06-29T04:50:50.145Z,200.00
2018-06-29T04:52:53.432Z,204.00
2018-06-29T04:53:57.739Z,204.00
2018-06-29T04:55:05.020Z,200.00
2018-06-29T04:55:54.746Z,200.00
2018-06-29T04:57:29.003Z,204.00
2018-06-29T04:58:10.668Z,204.00
2018-06-29T04:59:22.249Z,204.00
2018-06-29T05:00:21.845Z,204.00
2018-06-29T05:01:21.749Z,204.00
2018-06-29T05:02:39.983Z,204.00
2018-06-29T05:03:36.201Z,204.00
2018-06-29T05:04:43.070Z,200.00
2018-06-29T05:08:02.957Z,212.00
2018-06-29T05:09:12.281Z,216.00
2018-06-29T05:10:21.403Z,216.00
2018-06-29T05:11:25.197Z,220.00
2018-06-29T05:12:27.046Z,224.00
2018-06-29T05:13:31.252Z,228.00
2018-06-29T05:14:28.189Z,232.00
2018-06-29T05:15:37.013Z,232.00
2018-06-29T05:16:48.579Z,240.00
2018-06-29T05:17:49.710Z,244.00
2018-06-29T05:18:56.067Z,248.00
2018-06-29T05:19:55.970Z,248.00
2018-06-29T05:25:18.434Z,268.00
2018-06-29T05:26:33.696Z,268.00
2018-06-29T05:28:40.269Z,268.00
2018-06-29T05:29:55.635Z,268.00
2018-06-29T05:31:02.499Z,268.00
2018-06-29T05:31:55.287Z,264.00
2018-06-29T05:33:08.449Z,260.00
2018-06-29T05:34:08.231Z,256.00
2018-06-29T05:35:15.220Z,256.00
2018-06-29T05:36:26.905Z,256.00
2018-06-29T05:37:22.711Z,248.00
2018-06-29T05:38:35.108Z,248.00
2018-06-29T05:39:31.431Z,244.00
2018-06-29T05:40:46.486Z,248.00
2018-06-29T05:42:56.433Z,240.00
2018-06-29T05:44:05.969Z,240.00
2018-06-29T05:45:02.288Z,240.00
2018-06-29T05:46:13.202Z,236.00
2018-06-29T05:48:20.432Z,232.00
2018-06-29T05:49:38.458Z,228.00
2018-06-29T05:50:33.038Z,224.00
2018-06-29T05:51:39.393Z,224.00
2018-06-29T05:52:37.864Z,220.00
2018-06-29T05:53:52.003Z,220.00
2018-06-29T05:54:49.346Z,216.00
2018-06-29T05:56:03.491Z,220.00
2018-06-29T05:58:10.362Z,216.00
2018-06-29T06:00:17.032Z,216.00
2018-06-29T06:01:34.547Z,216.00
2018-06-29T06:02:28.615Z,216.00
2018-06-29T06:05:47.580Z,208.00
2018-06-29T06:06:50.452Z,208.00
2018-06-29T06:07:59.281Z,212.00
2018-06-29T06:09:11.356Z,208.00
2018-06-29T06:10:10.058Z,208.00
2018-06-29T06:11:16.442Z,208.00
2018-06-29T06:12:17.417Z,208.00
2018-06-29T06:13:41.093Z,208.00
2018-06-29T06:15:40.999Z,204.00
2018-06-29T06:16:49.498Z,208.00
2018-06-29T06:17:49.609Z,208.00
2018-06-29T06:18:58.623Z,208.00
2018-06-29T06:20:00.780Z,204.00
2018-06-29T06:21:01.514Z,208.00
2018-06-29T06:22:08.784Z,204.00
2018-06-29T06:23:20.052Z,204.00
2018-06-29T06:24:27.643Z,208.00
2018-06-29T06:26:36.253Z,208.00
2018-06-29T06:27:38.206Z,208.00
2018-06-29T06:28:43.845Z,208.00
2018-06-29T06:30:58.606Z,208.00
2018-06-29T06:32:02.910Z,208.00
2018-06-29T06:33:04.259Z,208.00
2018-06-29T06:34:09.458Z,208.00
2018-06-29T06:35:18.905Z,208.00
2018-06-29T06:36:24.444Z,208.00
2018-06-29T06:37:24.244Z,208.00
2018-06-29T06:38:36.028Z,208.00
2018-06-29T06:39:38.494Z,208.00
2018-06-29T06:40:50.580Z,212.00
2018-06-29T06:41:46.595Z,208.00
2018-06-29T06:42:49.367Z,208.00
2018-06-29T06:44:05.655Z,212.00
2018-06-29T06:46:11.914Z,208.00
2018-06-29T06:49:25.872Z,216.00
2018-06-29T06:50:37.850Z,212.00
2018-06-29T06:52:51.892Z,216.00
2018-06-29T06:56:05.123Z,216.00
2018-06-29T06:57:15.781Z,216.00
2018-06-29T06:58:12.008Z,220.00
2018-06-29T06:59:17.942Z,220.00
2018-06-29T07:00:26.449Z,220.00
2018-06-29T07:01:27.479Z,224.00
2018-06-29T07:02:34.552Z,224.00
2018-06-29T07:03:33.431Z,224.00
2018-06-29T07:07:06.220Z,232.00
2018-06-29T07:08:08.385Z,232.00
2018-06-29T07:10:17.103Z,236.00
2018-06-29T07:11:16.467Z,236.00
2018-06-29T07:12:27.461Z,244.00
2018-06-29T07:15:39.146Z,240.00
2018-06-29T07:17:53.597Z,244.00
2018-06-29T07:18:54.731Z,244.00
2018-06-29T07:21:07.954Z,248.00
2018-06-29T07:22:16.771Z,248.00
2018-06-29T07:24:22.360Z,256.00
2018-06-29T07:25:31.841Z,256.00
2018-06-29T07:26:34.714Z,260.00
2018-06-29T07:27:49.161Z,260.00
2018-06-29T07:29:54.515Z,264.00
2018-06-29T07:30:52.467Z,260.00
2018-06-29T07:33:13.565Z,264.00
2018-06-29T07:34:10.470Z,268.00
2018-06-29T07:36:28.843Z,268.00
2018-06-29T07:38:35.232Z,268.00
2018-06-29T07:39:44.838Z,268.00
2018-06-29T07:41:04.505Z,268.00
2018-06-29T07:42:07.994Z,272.00
2018-06-29T07:43:08.002Z,272.00
2018-06-29T07:45:32.797Z,272.00
2018-06-29T07:47:23.593Z,272.00
2018-06-29T07:48:38.244Z,272.00
2018-06-29T07:49:40.927Z,276.00
2018-06-29T07:50:45.526Z,276.00
2018-06-29T07:51:37.854Z,276.00
2018-06-29T07:52:57.755Z,276.00
2018-06-29T07:53:55.584Z,276.00
2018-06-29T07:55:12.383Z,276.00
2018-06-29T07:56:08.756Z,280.00
2018-06-29T07:57:18.649Z,284.00
2018-06-29T07:58:36.033Z,284.00
2018-06-29T08:00:27.573Z,280.00
2018-06-29T08:02:00.863Z,280.00
2018-06-29T08:02:50.634Z,284.00
2018-06-29T08:03:55.670Z,288.00
2018-06-29T08:05:01.805Z,288.00
2018-06-29T08:05:57.611Z,288.00
2018-06-29T08:07:25.982Z,288.00
2018-06-29T08:08:20.988Z,288.00
2018-06-29T08:10:28.479Z,292.00
2018-06-29T08:12:53.365Z,296.00
2018-06-29T08:13:45.376Z,300.00
2018-06-29T08:15:04.839Z,308.00
2018-06-29T08:15:47.438Z,320.00
2018-06-29T08:17:01.233Z,332.00
2018-06-29T08:18:13.976Z,344.00
2018-06-29T08:19:31.492Z,360.00
2018-06-29T08:20:45.322Z,372.00
2018-06-29T08:21:26.588Z,392.00
2018-06-29T08:22:36.632Z,396.00
2018-06-29T08:23:30.800Z,412.00
2018-06-29T08:24:53.030Z,424.00
2018-06-29T08:26:11.366Z,444.00
2018-06-29T08:26:50.073Z,460.00
2018-06-29T08:27:52.127Z,460.00
2018-06-29T08:28:54.592Z,476.00
2018-06-29T08:29:59.885Z,476.00
2018-06-29T08:31:14.485Z,484.00
2018-06-29T08:32:22.260Z,488.00
2018-06-29T08:34:23.912Z,496.00
2018-06-29T08:35:31.803Z,492.00
2018-06-29T08:36:46.864Z,496.00
2018-06-29T08:37:31.714Z,500.00
2018-06-29T08:38:54.044Z,504.00
2018-06-29T08:39:47.190Z,508.00
2018-06-29T08:42:13.315Z,508.00
2018-06-29T08:47:36.597Z,520.00
2018-06-29T08:48:35.484Z,520.00
2018-06-29T08:49:38.518Z,520.00
2018-06-29T08:50:39.687Z,516.00
2018-06-29T08:51:50.489Z,520.00
2018-06-29T08:53:04.792Z,516.00
2018-06-29T08:53:50.187Z,520.00
2018-06-29T08:55:04.979Z,516.00
2018-06-29T08:56:16.997Z,520.00
2018-06-29T08:57:06.873Z,520.00
2018-06-29T08:59:30.737Z,516.00
2018-06-29T09:01:33.417Z,520.00
2018-06-29T09:02:32.498Z,520.00
2018-06-29T09:03:48.388Z,516.00
2018-06-29T09:04:54.072Z,520.00
2018-06-29T09:05:56.796Z,520.00
2018-06-29T09:06:56.385Z,524.00
2018-06-29T09:08:07.657Z,516.00
2018-06-29T09:09:09.609Z,520.00
2018-06-29T09:10:25.896Z,524.00
2018-06-29T09:12:26.016Z,528.00
2018-06-29T09:13:32.372Z,524.00
2018-06-29T09:14:50.610Z,528.00
2018-06-29T09:15:43.042Z,524.00
2018-06-29T09:16:40.497Z,528.00
2018-06-29T09:19:05.484Z,528.00
2018-06-29T09:20:08.147Z,532.00
2018-06-29T09:21:07.641Z,532.00
2018-06-29T09:22:26.290Z,528.00
2018-06-29T09:23:36.847Z,532.00
2018-06-29T09:24:35.505Z,536.00
2018-06-29T09:25:29.583Z,536.00
2018-06-29T09:26:38.705Z,536.00
2018-06-29T09:27:55.308Z,532.00
2018-06-29T09:30:10.265Z,528.00
2018-06-29T09:31:15.288Z,532.00
2018-06-29T09:32:12.018Z,532.00
2018-06-29T09:34:20.944Z,528.00
2018-06-29T09:36:29.761Z,528.00
2018-06-29T09:37:55.583Z,532.00
2018-06-29T09:39:52.617Z,528.00
2018-06-29T09:41:05.117Z,528.00
2018-06-29T09:41:59.799Z,528.00
2018-06-29T09:43:01.653Z,532.00
2018-06-29T09:44:06.162Z,532.00
2018-06-29T09:45:07.703Z,540.00
2018-06-29T09:46:12.933Z,536.00
2018-06-29T09:47:26.149Z,540.00
2018-06-29T09:48:34.553Z,536.00
2018-06-29T09:49:36.507Z,532.00
2018-06-29T09:51:59.006Z,536.00
2018-06-29T09:53:04.584Z,528.00
2018-06-29T09:53:55.999Z,528.00
2018-06-29T09:55:08.131Z,524.00
2018-06-29T09:56:16.173Z,524.00
2018-06-29T09:57:12.495Z,488.00
2018-06-29T09:59:32.070Z,496.00
2018-06-29T10:00:33.926Z,536.00
2018-06-29T10:02:44.480Z,540.00
2018-06-29T10:03:53.806Z,544.00
2018-06-29T10:04:51.352Z,552.00
2018-06-29T10:06:07.267Z,548.00
2018-06-29T10:06:59.558Z,548.00
2018-06-29T10:08:06.323Z,540.00
2018-06-29T10:09:21.999Z,544.00
2018-06-29T10:11:31.133Z,544.00
2018-06-29T10:12:26.829Z,548.00
2018-06-29T10:13:38.823Z,552.00
2018-06-29T10:14:45.995Z,560.00
2018-06-29T10:16:00.033Z,564.00
2018-06-29T10:18:00.760Z,564.00
2018-06-29T10:20:08.861Z,572.00
2018-06-29T10:21:10.507Z,564.00
2018-06-29T10:24:29.984Z,584.00
2018-06-29T10:25:36.237Z,584.00
2018-06-29T10:26:39.229Z,584.00
2018-06-29T10:30:06.181Z,612.00
2018-06-29T10:30:58.698Z,616.00
2018-06-29T10:32:05.770Z,616.00
2018-06-29T10:33:15.402Z,628.00
2018-06-29T10:34:12.848Z,628.00
2018-06-29T10:35:32.109Z,636.00
2018-06-29T10:36:30.269Z,644.00
2018-06-29T10:37:45.125Z,644.00
2018-06-29T10:38:41.445Z,648.00
2018-06-29T10:39:57.939Z,652.00
2018-06-29T10:42:04.917Z,660.00
2018-06-29T10:43:04.523Z,668.00
2018-06-29T10:44:20.596Z,668.00
2018-06-29T10:45:30.946Z,672.00
2018-06-29T10:46:34.639Z,676.00
2018-06-29T10:47:30.860Z,684.00
2018-06-29T10:48:33.937Z,684.00
2018-06-29T10:50:42.038Z,692.00
2018-06-29T10:52:00.589Z,700.00
2018-06-29T10:52:55.668Z,700.00
2018-06-29T10:54:03.527Z,692.00
2018-06-29T10:55:07.256Z,700.00
2018-06-29T10:56:12.488Z,692.00
2018-06-29T10:58:20.528Z,692.00
2018-06-29T10:59:43.047Z,692.00
2018-06-29T11:01:49.183Z,692.00
2018-06-29T11:04:00.560Z,692.00
2018-06-29T11:05:04.048Z,692.00
2018-06-29T11:06:05.390Z,700.00
2018-06-29T11:07:12.764Z,696.00
2018-06-29T11:08:17.691Z,696.00
2018-06-29T11:09:29.785Z,696.00
2018-06-29T11:10:27.942Z,688.00
2018-06-29T11:11:28.873Z,692.00
2018-06-29T11:12:31.949Z,696.00
2018-06-29T11:13:45.063Z,688.00
2018-06-29T11:14:54.182Z,704.00
2018-06-29T11:15:58.797Z,704.00
2018-06-29T11:17:00.444Z,696.00
2018-06-29T11:18:09.154Z,700.00
2018-06-29T11:19:14.485Z,696.00
2018-06-29T11:20:19.409Z,712.00
2018-06-29T11:21:28.528Z,712.00
2018-06-29T11:22:23.535Z,716.00
2018-06-29T11:24:37.047Z,716.00
2018-06-29T11:25:48.065Z,720.00
2018-06-29T11:26:49.144Z,724.00
2018-06-29T11:27:56.012Z,724.00
2018-06-29T11:29:59.404Z,724.00
2018-06-29T11:31:05.453Z,728.00
2018-06-29T11:32:16.007Z,724.00
2018-06-29T11:33:22.978Z,732.00
2018-06-29T11:34:28.720Z,732.00
2018-06-29T11:35:40.912Z,468.00
2018-06-29T11:36:42.403Z,732.00
2018-06-29T11:39:04.185Z,724.00
2018-06-29T11:40:00.191Z,732.00
2018-06-29T11:41:02.347Z,736.00
2018-06-29T11:42:08.295Z,740.00
2018-06-29T11:43:09.733Z,744.00
2018-06-29T11:44:24.691Z,736.00
2018-06-29T11:45:27.979Z,740.00
2018-06-29T11:46:31.258Z,740.00
2018-06-29T11:47:35.984Z,740.00
2018-06-29T11:48:41.056Z,740.00
2018-06-29T11:49:56.572Z,744.00
2018-06-29T11:50:54.332Z,744.00
2018-06-29T11:53:01.030Z,740.00
2018-06-29T11:54:08.376Z,748.00
2018-06-29T11:55:13.558Z,752.00
2018-06-29T11:56:19.549Z,752.00
2018-06-29T11:57:28.977Z,760.00
2018-06-29T11:58:35.229Z,756.00
2018-06-29T11:59:36.166Z,756.00
2018-06-29T12:02:57.597Z,760.00
2018-06-29T12:05:03.952Z,764.00
2018-06-29T12:06:05.077Z,768.00
2018-06-29T12:07:15.999Z,764.00
2018-06-29T12:08:14.102Z,760.00
2018-06-29T12:10:32.449Z,752.00
2018-06-29T12:11:34.602Z,752.00
2018-06-29T12:12:49.058Z,752.00
2018-06-29T12:13:46.188Z,756.00
2018-06-29T12:15:54.289Z,748.00
2018-06-29T12:17:06.896Z,748.00
2018-06-29T12:18:12.534Z,756.00
2018-06-29T12:19:11.319Z,748.00
2018-06-29T12:20:16.553Z,744.00
2018-06-29T12:22:28.538Z,748.00
2018-06-29T12:23:43.900Z,748.00
2018-06-29T12:24:46.605Z,752.00
2018-06-29T12:25:44.733Z,752.00
2018-06-29T12:26:59.597Z,744.00
2018-06-29T12:28:00.900Z,748.00
2018-06-29T12:29:02.233Z,760.00
2018-06-29T12:30:06.681Z,748.00
2018-06-29T12:31:09.342Z,740.00
2018-06-29T12:32:24.102Z,748.00
2018-06-29T12:33:34.341Z,744.00
2018-06-29T12:34:31.859Z,744.00
2018-06-29T12:35:41.319Z,740.00
2018-06-29T12:37:48.295Z,732.00
2018-06-29T12:38:58.134Z,732.00
2018-06-29T12:40:01.724Z,736.00
2018-06-29T12:41:09.213Z,736.00
2018-06-29T12:42:13.923Z,736.00
2018-06-29T12:43:12.086Z,740.00
2018-06-29T12:45:34.564Z,740.00
2018-06-29T12:46:36.377Z,736.00
2018-06-29T12:47:38.329Z,736.00
2018-06-29T12:48:37.720Z,744.00
2018-06-29T12:49:49.810Z,728.00
2018-06-29T12:50:57.909Z,728.00
2018-06-29T12:52:01.571Z,724.00
2018-06-29T12:53:10.635Z,720.00
2018-06-29T12:54:12.470Z,704.00
2018-06-29T12:55:15.547Z,688.00
2018-06-29T12:56:20.468Z,696.00
2018-06-29T12:57:21.150Z,700.00
2018-06-29T12:58:32.269Z,696.00
2018-06-29T12:59:53.388Z,692.00
2018-06-29T13:04:07.006Z,660.00
2018-06-29T13:05:09.472Z,652.00
2018-06-29T13:06:16.851Z,656.00
2018-06-29T13:07:27.480Z,640.00
2018-06-29T13:09:33.357Z,652.00
2018-06-29T13:10:45.143Z,640.00
2018-06-29T13:11:36.244Z,648.00
2018-06-29T13:12:52.126Z,624.00
2018-06-29T13:13:47.825Z,620.00
2018-06-29T13:14:57.564Z,616.00
2018-06-29T13:15:55.219Z,616.00
2018-06-29T13:18:22.565Z,604.00
2018-06-29T13:19:25.132Z,612.00
2018-06-29T13:20:18.995Z,592.00
2018-06-29T13:21:32.823Z,600.00
2018-06-29T13:22:37.751Z,596.00
2018-06-29T13:23:39.918Z,592.00
2018-06-29T13:24:46.814Z,588.00
2018-06-29T13:27:03.136Z,592.00
2018-06-29T13:28:06.361Z,580.00
2018-06-29T13:29:14.456Z,572.00
2018-06-29T13:31:30.639Z,572.00
2018-06-29T13:32:20.304Z,556.00
2018-06-29T13:33:35.262Z,548.00
2018-06-29T13:34:37.418Z,548.00
2018-06-29T13:36:48.186Z,540.00
2018-06-29T13:38:05.507Z,532.00
2018-06-29T13:39:08.987Z,532.00
2018-06-29T13:42:16.094Z,520.00
2018-06-29T13:43:14.235Z,512.00
2018-06-29T13:45:32.885Z,488.00
2018-06-29T13:46:38.587Z,488.00
2018-06-29T13:47:41.603Z,496.00
2018-06-29T13:48:49.494Z,500.00
2018-06-29T13:50:04.554Z,500.00
2018-06-29T13:50:56.173Z,500.00
2018-06-29T13:52:01.496Z,500.00
2018-06-29T13:53:12.678Z,492.00
2018-06-29T13:54:08.677Z,496.00
2018-06-29T13:56:21.286Z,512.00
2018-06-29T13:57:36.960Z,508.00
2018-06-29T13:59:04.718Z,512.00
2018-06-29T14:01:10.164Z,504.00
2018-06-29T14:03:01.878Z,484.00
2018-06-29T14:04:07.627Z,480.00
2018-06-29T14:05:09.060Z,472.00
2018-06-29T14:06:26.064Z,476.00
2018-06-29T14:07:23.001Z,484.00
2018-06-29T14:09:40.217Z,480.00
2018-06-29T14:10:37.765Z,480.00
2018-06-29T14:11:54.778Z,480.00
2018-06-29T14:12:52.933Z,480.00
2018-06-29T14:13:54.075Z,484.00
2018-06-29T14:15:08.007Z,492.00
2018-06-29T14:16:00.328Z,496.00
2018-06-29T14:17:13.953Z,496.00
2018-06-29T14:18:16.112Z,496.00
2018-06-29T14:20:29.951Z,492.00
2018-06-29T14:21:36.205Z,488.00
2018-06-29T14:22:40.612Z,480.00
2018-06-29T14:23:49.595Z,480.00
2018-06-29T14:24:58.955Z,476.00
2018-06-29T14:25:52.920Z,480.00
2018-06-29T14:30:13.600Z,492.00
2018-06-29T14:32:31.872Z,480.00
2018-06-29T14:33:32.292Z,480.00
2018-06-29T14:34:42.444Z,472.00
2018-06-29T14:35:52.578Z,472.00
2018-06-29T14:36:57.512Z,464.00
2018-06-29T14:37:56.936Z,464.00
2018-06-29T14:39:06.598Z,472.00
2018-06-29T14:40:12.990Z,472.00
2018-06-29T14:41:22.103Z,468.00
2018-06-29T14:43:27.442Z,476.00
2018-06-29T14:44:30.010Z,476.00
2018-06-29T14:45:32.598Z,472.00
2018-06-29T14:51:11.629Z,468.00
2018-06-29T14:52:07.843Z,468.00
2018-06-29T14:53:19.832Z,468.00
2018-06-29T14:54:17.279Z,468.00
2018-06-29T14:55:31.314Z,464.00
2018-06-29T14:57:40.645Z,468.00
2018-06-29T14:58:48.947Z,460.00
2018-06-29T14:59:56.941Z,476.00
2018-06-29T15:00:52.137Z,464.00
2018-06-29T15:04:15.508Z,456.00
2018-06-29T15:05:21.652Z,456.00
2018-06-29T15:07:26.275Z,448.00
2018-06-29T15:08:34.378Z,448.00
2018-06-29T15:09:34.885Z,448.00
2018-06-29T15:10:44.624Z,448.00
2018-06-29T15:11:50.878Z,444.00
2018-06-29T15:12:48.606Z,436.00
2018-06-29T15:13:52.634Z,440.00
2018-06-29T15:15:03.278Z,444.00
2018-06-29T15:16:17.208Z,436.00
2018-06-29T15:17:13.206Z,436.00
2018-06-29T15:18:14.470Z,428.00
2018-06-29T15:19:32.602Z,424.00
2018-06-29T15:20:44.692Z,424.00
2018-06-29T15:21:33.756Z,420.00
2018-06-29T15:22:52.079Z,432.00
2018-06-29T15:23:50.346Z,424.00
2018-06-29T15:26:08.791Z,424.00
2018-06-29T15:27:17.299Z,420.00
2018-06-29T15:28:13.610Z,420.00
2018-06-29T15:29:18.133Z,424.00
2018-06-29T15:30:28.074Z,432.00
2018-06-29T15:31:29.722Z,436.00
2018-06-29T15:32:36.480Z,432.00
2018-06-29T15:33:43.859Z,424.00
2018-06-29T15:35:50.736Z,472.00
2018-06-29T15:37:55.469Z,488.00
2018-06-29T15:39:13.897Z,460.00
2018-06-29T15:40:12.993Z,488.00
2018-06-29T15:42:26.106Z,440.00
2018-06-29T15:43:27.443Z,424.00
2018-06-29T15:44:32.467Z,428.00
2018-06-29T15:45:42.508Z,416.00
2018-06-29T15:47:45.288Z,448.00
2018-06-29T15:49:00.142Z,436.00
2018-06-29T15:50:03.626Z,484.00
2018-06-29T15:51:14.593Z,424.00
2018-06-29T15:52:18.799Z,420.00
2018-06-29T15:54:29.769Z,412.00
2018-06-29T15:55:24.453Z,460.00
2018-06-29T15:56:33.572Z,636.00
2018-06-29T15:57:42.283Z,1164.00
2018-06-29T15:58:41.367Z,416.00
2018-06-29T16:00:54.392Z,472.00
2018-06-29T16:01:55.929Z,344.00
2018-06-29T16:03:06.494Z,340.00
2018-06-29T16:04:14.272Z,336.00
2018-06-29T16:05:22.369Z,332.00
2018-06-29T16:06:35.389Z,344.00
2018-06-29T16:07:38.050Z,328.00
2018-06-29T16:08:35.190Z,332.00
2018-06-29T16:09:40.727Z,336.00
2018-06-29T16:10:41.757Z,332.00
2018-06-29T16:11:51.184Z,348.00
2018-06-29T16:15:05.132Z,348.00
2018-06-29T16:16:10.975Z,320.00
2018-06-29T16:18:30.550Z,328.00
2018-06-29T16:20:45.616Z,388.00
2018-06-29T16:21:38.673Z,380.00
2018-06-29T16:23:02.626Z,388.00
2018-06-29T16:23:42.767Z,388.00
2018-06-29T16:24:58.441Z,384.00
2018-06-29T16:27:16.082Z,392.00
2018-06-29T16:28:16.390Z,396.00
2018-06-29T16:30:18.238Z,400.00
2018-06-29T16:31:32.631Z,416.00
2018-06-29T16:33:41.095Z,408.00
2018-06-29T16:34:54.415Z,636.00
2018-06-29T16:35:50.032Z,600.00
2018-06-29T16:36:59.137Z,388.00
2018-06-29T16:38:06.006Z,380.00
2018-06-29T16:41:23.843Z,428.00
2018-06-29T16:42:26.718Z,384.00
2018-06-29T16:44:39.044Z,380.00
2018-06-29T16:45:44.351Z,376.00
2018-06-29T16:46:45.637Z,372.00
2018-06-29T16:47:56.755Z,372.00
2018-06-29T16:48:56.660Z,376.00
2018-06-29T16:50:09.267Z,372.00
2018-06-29T16:51:11.727Z,372.00
2018-06-29T16:52:17.687Z,372.00
2018-06-29T16:55:39.503Z,360.00
2018-06-29T16:56:44.322Z,352.00
2018-06-29T16:57:40.440Z,356.00